sensor_id;sensor_type;location;lat;lon;timestamp;pressure;altitude;pressure_sealevel;temperature;humidity
4199;BME280;2113;50.946;14.610;2022-10-17T00:01:07;97843.13;;;17.46;68.48
4199;BME280;2113;50.946;14.610;2022-10-17T00:03:36;97849.63;;;17.56;68.42
4199;BME280;2113;50.946;14.610;2022-10-17T00:06:06;97852.66;;;17.49;68.57
4199;BME280;2113;50.946;14.610;2022-10-17T00:08:35;97856.22;;;17.81;67.40
4199;BME280;2113;50.946;14.610;2022-10-17T00:11:06;97854.31;;;18.00;66.54
4199;BME280;2113;50.946;14.610;2022-10-17T00:13:35;97850.06;;;17.98;66.02
4199;BME280;2113;50.946;14.610;2022-10-17T00:16:03;97848.13;;;17.68;67.91
4199;BME280;2113;50.946;14.610;2022-10-17T00:18:33;97853.25;;;17.36;68.75
4199;BME280;2113;50.946;14.610;2022-10-17T00:21:02;97847.69;;;17.60;67.82
4199;BME280;2113;50.946;14.610;2022-10-17T00:23:32;97856.63;;;17.73;67.32
4199;BME280;2113;50.946;14.610;2022-10-17T00:26:02;97850.56;;;17.89;66.48
4199;BME280;2113;50.946;14.610;2022-10-17T00:28:31;97868.81;;;17.74;66.69
4199;BME280;2113;50.946;14.610;2022-10-17T00:31:24;97868.09;;;17.88;66.02
4199;BME280;2113;50.946;14.610;2022-10-17T00:33:54;97866.47;;;17.52;66.48
4199;BME280;2113;50.946;14.610;2022-10-17T00:36:24;97864.50;;;17.22;68.17
4199;BME280;2113;50.946;14.610;2022-10-17T00:38:54;97855.56;;;17.60;67.45
4199;BME280;2113;50.946;14.610;2022-10-17T00:41:24;97856.69;;;17.21;68.85
4199;BME280;2113;50.946;14.610;2022-10-17T00:43:56;97862.88;;;17.20;68.50
4199;BME280;2113;50.946;14.610;2022-10-17T00:46:26;97851.41;;;17.38;67.46
4199;BME280;2113;50.946;14.610;2022-10-17T00:49:00;97858.59;;;17.52;66.39
4199;BME280;2113;50.946;14.610;2022-10-17T00:51:33;97851.25;;;17.41;66.12
4199;BME280;2113;50.946;14.610;2022-10-17T00:54:05;97852.00;;;17.61;66.88
4199;BME280;2113;50.946;14.610;2022-10-17T00:56:33;97850.59;;;17.71;65.77
4199;BME280;2113;50.946;14.610;2022-10-17T00:59:03;97856.13;;;17.49;66.58
4199;BME280;2113;50.946;14.610;2022-10-17T01:01:37;97855.22;;;17.66;65.71
4199;BME280;2113;50.946;14.610;2022-10-17T01:04:07;97857.56;;;17.55;65.32
4199;BME280;2113;50.946;14.610;2022-10-17T01:06:38;97865.16;;;17.44;65.08
4199;BME280;2113;50.946;14.610;2022-10-17T01:09:06;97868.75;;;17.42;66.11
4199;BME280;2113;50.946;14.610;2022-10-17T01:11:40;97870.88;;;17.52;65.23
4199;BME280;2113;50.946;14.610;2022-10-17T01:14:21;97869.13;;;17.17;67.82
4199;BME280;2113;50.946;14.610;2022-10-17T01:17:01;97863.47;;;17.42;66.23
4199;BME280;2113;50.946;14.610;2022-10-17T01:19:48;97870.75;;;17.37;65.78
4199;BME280;2113;50.946;14.610;2022-10-17T01:22:26;97860.22;;;17.37;66.36
4199;BME280;2113;50.946;14.610;2022-10-17T01:25:17;97870.38;;;17.10;66.84
4199;BME280;2113;50.946;14.610;2022-10-17T01:28:13;97863.72;;;17.20;67.27
4199;BME280;2113;50.946;14.610;2022-10-17T01:31:12;97862.56;;;17.26;66.81
4199;BME280;2113;50.946;14.610;2022-10-17T01:33:47;97859.47;;;17.35;66.71
4199;BME280;2113;50.946;14.610;2022-10-17T01:36:29;97861.31;;;16.98;68.17
4199;BME280;2113;50.946;14.610;2022-10-17T01:39:05;97861.16;;;17.19;67.65
4199;BME280;2113;50.946;14.610;2022-10-17T01:41:41;97861.00;;;17.39;66.25
4199;BME280;2113;50.946;14.610;2022-10-17T01:44:14;97860.06;;;17.40;65.75
4199;BME280;2113;50.946;14.610;2022-10-17T01:46:48;97861.34;;;17.16;66.29
4199;BME280;2113;50.946;14.610;2022-10-17T01:49:21;97860.47;;;17.15;66.20
4199;BME280;2113;50.946;14.610;2022-10-17T01:51:55;97865.50;;;17.02;66.52
4199;BME280;2113;50.946;14.610;2022-10-17T01:54:28;97862.78;;;16.68;67.95
4199;BME280;2113;50.946;14.610;2022-10-17T01:56:59;97857.91;;;16.60;68.40
4199;BME280;2113;50.946;14.610;2022-10-17T01:59:34;97852.16;;;16.34;69.93
4199;BME280;2113;50.946;14.610;2022-10-17T02:02:07;97854.41;;;16.78;68.50
4199;BME280;2113;50.946;14.610;2022-10-17T02:04:36;97857.22;;;16.93;67.56
4199;BME280;2113;50.946;14.610;2022-10-17T02:07:08;97856.47;;;16.72;67.95
4199;BME280;2113;50.946;14.610;2022-10-17T02:09:37;97858.84;;;16.95;67.19
4199;BME280;2113;50.946;14.610;2022-10-17T02:12:24;97863.66;;;17.05;66.47
4199;BME280;2113;50.946;14.610;2022-10-17T02:15:05;97866.88;;;16.92;66.38
4199;BME280;2113;50.946;14.610;2022-10-17T02:17:44;97863.16;;;16.96;66.36
4199;BME280;2113;50.946;14.610;2022-10-17T02:20:20;97869.97;;;17.00;66.38
4199;BME280;2113;50.946;14.610;2022-10-17T02:22:54;97866.41;;;17.19;65.58
4199;BME280;2113;50.946;14.610;2022-10-17T02:25:31;97868.03;;;17.04;65.30
4199;BME280;2113;50.946;14.610;2022-10-17T02:28:08;97862.84;;;16.85;67.24
4199;BME280;2113;50.946;14.610;2022-10-17T02:31:06;97864.94;;;17.13;65.97
4199;BME280;2113;50.946;14.610;2022-10-17T02:33:41;97863.78;;;17.01;66.03
4199;BME280;2113;50.946;14.610;2022-10-17T02:36:14;97861.94;;;16.50;68.30
4199;BME280;2113;50.946;14.610;2022-10-17T02:38:46;97861.50;;;16.59;67.85
4199;BME280;2113;50.946;14.610;2022-10-17T02:41:17;97865.72;;;16.25;68.92
4199;BME280;2113;50.946;14.610;2022-10-17T02:43:47;97861.16;;;16.29;68.99
4199;BME280;2113;50.946;14.610;2022-10-17T02:46:18;97862.44;;;16.01;71.17
4199;BME280;2113;50.946;14.610;2022-10-17T02:48:52;97850.41;;;15.97;70.57
4199;BME280;2113;50.946;14.610;2022-10-17T02:51:27;97857.78;;;16.27;70.33
4199;BME280;2113;50.946;14.610;2022-10-17T02:54:01;97856.03;;;16.44;69.49
4199;BME280;2113;50.946;14.610;2022-10-17T02:56:37;97862.56;;;17.09;66.78
4199;BME280;2113;50.946;14.610;2022-10-17T02:59:11;97858.94;;;16.94;66.26
4199;BME280;2113;50.946;14.610;2022-10-17T03:01:42;97866.19;;;16.70;68.47
4199;BME280;2113;50.946;14.610;2022-10-17T03:04:13;97864.34;;;16.72;67.83
4199;BME280;2113;50.946;14.610;2022-10-17T03:06:41;97860.09;;;16.33;69.49
4199;BME280;2113;50.946;14.610;2022-10-17T03:09:10;97858.88;;;16.40;69.25
4199;BME280;2113;50.946;14.610;2022-10-17T03:11:39;97860.00;;;16.53;68.94
4199;BME280;2113;50.946;14.610;2022-10-17T03:14:08;97858.97;;;16.38;69.16
4199;BME280;2113;50.946;14.610;2022-10-17T03:16:36;97860.22;;;16.30;69.03
4199;BME280;2113;50.946;14.610;2022-10-17T03:19:04;97861.78;;;16.53;68.65
4199;BME280;2113;50.946;14.610;2022-10-17T03:21:35;97856.97;;;16.80;67.58
4199;BME280;2113;50.946;14.610;2022-10-17T03:24:06;97866.19;;;16.89;65.96
4199;BME280;2113;50.946;14.610;2022-10-17T03:26:34;97860.88;;;16.71;66.82
4199;BME280;2113;50.946;14.610;2022-10-17T03:29:03;97868.34;;;16.61;67.77
4199;BME280;2113;50.946;14.610;2022-10-17T03:31:33;97869.56;;;16.54;67.54
4199;BME280;2113;50.946;14.610;2022-10-17T03:34:03;97864.13;;;16.76;66.64
4199;BME280;2113;50.946;14.610;2022-10-17T03:36:31;97863.34;;;16.57;67.89
4199;BME280;2113;50.946;14.610;2022-10-17T03:39:01;97869.84;;;16.67;66.35
4199;BME280;2113;50.946;14.610;2022-10-17T03:41:30;97865.16;;;16.74;65.61
4199;BME280;2113;50.946;14.610;2022-10-17T03:43:58;97864.47;;;16.51;66.56
4199;BME280;2113;50.946;14.610;2022-10-17T03:46:26;97866.16;;;16.52;66.03
4199;BME280;2113;50.946;14.610;2022-10-17T03:48:57;97861.22;;;15.89;67.97
4199;BME280;2113;50.946;14.610;2022-10-17T03:51:25;97861.19;;;15.70;69.54
4199;BME280;2113;50.946;14.610;2022-10-17T03:54:01;97869.31;;;15.84;70.11
4199;BME280;2113;50.946;14.610;2022-10-17T03:56:29;97868.28;;;16.08;68.38
4199;BME280;2113;50.946;14.610;2022-10-17T03:59:03;97870.47;;;15.98;69.10
4199;BME280;2113;50.946;14.610;2022-10-17T04:01:34;97874.63;;;16.40;67.33
4199;BME280;2113;50.946;14.610;2022-10-17T04:04:02;97874.28;;;16.10;68.86
4199;BME280;2113;50.946;14.610;2022-10-17T04:06:34;97880.34;;;16.67;66.97
4199;BME280;2113;50.946;14.610;2022-10-17T04:09:05;97880.28;;;16.50;67.21
4199;BME280;2113;50.946;14.610;2022-10-17T04:11:40;97884.78;;;16.29;67.49
4199;BME280;2113;50.946;14.610;2022-10-17T04:14:09;97882.72;;;16.35;67.69
4199;BME280;2113;50.946;14.610;2022-10-17T04:16:38;97899.94;;;16.03;69.13
4199;BME280;2113;50.946;14.610;2022-10-17T04:19:12;97895.31;;;15.69;70.56
4199;BME280;2113;50.946;14.610;2022-10-17T04:21:44;97894.25;;;16.50;67.93
4199;BME280;2113;50.946;14.610;2022-10-17T04:24:15;97904.97;;;16.64;66.70
4199;BME280;2113;50.946;14.610;2022-10-17T04:27:02;97907.66;;;16.63;66.93
4199;BME280;2113;50.946;14.610;2022-10-17T04:29:32;97901.66;;;16.42;67.25
4199;BME280;2113;50.946;14.610;2022-10-17T04:32:22;97894.22;;;16.69;65.92
4199;BME280;2113;50.946;14.610;2022-10-17T04:35:01;97901.78;;;16.20;67.94
4199;BME280;2113;50.946;14.610;2022-10-17T04:37:30;97910.75;;;15.56;70.23
4199;BME280;2113;50.946;14.610;2022-10-17T04:40:07;97902.22;;;16.30;67.82
4199;BME280;2113;50.946;14.610;2022-10-17T04:42:36;97904.50;;;16.18;67.91
4199;BME280;2113;50.946;14.610;2022-10-17T04:45:06;97910.78;;;15.76;68.80
4199;BME280;2113;50.946;14.610;2022-10-17T04:47:35;97912.44;;;15.98;68.35
4199;BME280;2113;50.946;14.610;2022-10-17T04:50:04;97911.97;;;15.68;69.76
4199;BME280;2113;50.946;14.610;2022-10-17T04:52:34;97915.00;;;15.99;68.29
4199;BME280;2113;50.946;14.610;2022-10-17T04:55:06;97918.59;;;15.97;68.44
4199;BME280;2113;50.946;14.610;2022-10-17T04:57:35;97920.09;;;16.40;66.84
4199;BME280;2113;50.946;14.610;2022-10-17T05:00:16;97925.34;;;16.59;66.34
4199;BME280;2113;50.946;14.610;2022-10-17T05:02:47;97933.50;;;16.34;66.17
4199;BME280;2113;50.946;14.610;2022-10-17T05:05:15;97929.59;;;16.24;66.89
4199;BME280;2113;50.946;14.610;2022-10-17T05:07:45;97936.78;;;16.39;66.17
4199;BME280;2113;50.946;14.610;2022-10-17T05:10:18;97929.09;;;16.16;67.12
4199;BME280;2113;50.946;14.610;2022-10-17T05:12:49;97931.41;;;16.03;67.18
4199;BME280;2113;50.946;14.610;2022-10-17T05:15:20;97927.06;;;16.22;66.46
4199;BME280;2113;50.946;14.610;2022-10-17T05:17:53;97922.88;;;16.18;66.47
4199;BME280;2113;50.946;14.610;2022-10-17T05:20:23;97927.97;;;16.40;65.55
4199;BME280;2113;50.946;14.610;2022-10-17T05:22:52;97933.28;;;16.39;64.88
4199;BME280;2113;50.946;14.610;2022-10-17T05:25:21;97926.09;;;16.04;66.08
4199;BME280;2113;50.946;14.610;2022-10-17T05:27:50;97930.59;;;16.21;65.97
4199;BME280;2113;50.946;14.610;2022-10-17T05:30:19;97932.78;;;16.12;66.13
4199;BME280;2113;50.946;14.610;2022-10-17T05:32:51;97938.09;;;16.10;65.95
4199;BME280;2113;50.946;14.610;2022-10-17T05:35:21;97944.53;;;15.84;66.28
4199;BME280;2113;50.946;14.610;2022-10-17T05:37:50;97943.50;;;16.07;66.46
4199;BME280;2113;50.946;14.610;2022-10-17T05:40:22;97945.75;;;15.96;66.83
4199;BME280;2113;50.946;14.610;2022-10-17T05:42:52;97942.38;;;16.32;65.82
4199;BME280;2113;50.946;14.610;2022-10-17T05:45:22;97943.06;;;16.16;66.85
4199;BME280;2113;50.946;14.610;2022-10-17T05:47:50;97937.97;;;16.51;65.51
4199;BME280;2113;50.946;14.610;2022-10-17T05:50:19;97938.66;;;16.74;64.34
4199;BME280;2113;50.946;14.610;2022-10-17T05:53:12;97942.09;;;16.38;65.56
4199;BME280;2113;50.946;14.610;2022-10-17T05:55:54;97945.78;;;16.34;65.71
4199;BME280;2113;50.946;14.610;2022-10-17T05:58:22;97947.81;;;16.84;64.85
4199;BME280;2113;50.946;14.610;2022-10-17T06:01:22;97951.03;;;16.53;65.33
4199;BME280;2113;50.946;14.610;2022-10-17T06:03:52;97954.44;;;16.74;64.85
4199;BME280;2113;50.946;14.610;2022-10-17T06:06:20;97955.19;;;16.95;64.12
4199;BME280;2113;50.946;14.610;2022-10-17T06:08:49;97962.06;;;16.97;63.81
4199;BME280;2113;50.946;14.610;2022-10-17T06:11:25;97961.97;;;17.18;62.92
4199;BME280;2113;50.946;14.610;2022-10-17T06:13:53;97965.81;;;17.28;62.92
4199;BME280;2113;50.946;14.610;2022-10-17T06:16:24;97963.13;;;17.30;62.61
4199;BME280;2113;50.946;14.610;2022-10-17T06:18:52;97965.69;;;17.31;62.78
4199;BME280;2113;50.946;14.610;2022-10-17T06:21:22;97976.97;;;17.33;62.72
4199;BME280;2113;50.946;14.610;2022-10-17T06:23:53;97975.88;;;17.37;63.04
4199;BME280;2113;50.946;14.610;2022-10-17T06:26:30;97972.94;;;17.61;62.17
4199;BME280;2113;50.946;14.610;2022-10-17T06:28:58;97974.34;;;17.68;62.18
4199;BME280;2113;50.946;14.610;2022-10-17T06:31:30;97977.91;;;18.02;61.44
4199;BME280;2113;50.946;14.610;2022-10-17T06:33:58;97975.84;;;18.07;60.66
4199;BME280;2113;50.946;14.610;2022-10-17T06:36:28;97980.13;;;17.75;62.29
4199;BME280;2113;50.946;14.610;2022-10-17T06:38:56;97983.13;;;17.32;63.21
4199;BME280;2113;50.946;14.610;2022-10-17T06:41:37;97980.22;;;17.91;62.25
4199;BME280;2113;50.946;14.610;2022-10-17T06:44:07;97987.56;;;17.84;62.54
4199;BME280;2113;50.946;14.610;2022-10-17T06:46:55;97986.25;;;17.75;62.92
4199;BME280;2113;50.946;14.610;2022-10-17T06:49:25;97984.59;;;18.57;60.51
4199;BME280;2113;50.946;14.610;2022-10-17T06:52:16;97985.72;;;18.69;59.33
4199;BME280;2113;50.946;14.610;2022-10-17T06:54:58;97997.53;;;19.25;57.87
4199;BME280;2113;50.946;14.610;2022-10-17T06:57:39;97998.09;;;18.84;59.17
4199;BME280;2113;50.946;14.610;2022-10-17T07:00:39;98001.56;;;20.36;55.91
4199;BME280;2113;50.946;14.610;2022-10-17T07:03:09;97988.56;;;23.58;46.21
4199;BME280;2113;50.946;14.610;2022-10-17T07:05:37;97995.25;;;24.33;43.33
4199;BME280;2113;50.946;14.610;2022-10-17T07:08:06;98000.44;;;24.23;43.98
4199;BME280;2113;50.946;14.610;2022-10-17T07:10:37;97996.56;;;26.34;39.43
4199;BME280;2113;50.946;14.610;2022-10-17T07:13:08;97998.16;;;28.06;36.59
4199;BME280;2113;50.946;14.610;2022-10-17T07:15:36;98003.94;;;29.14;34.09
4199;BME280;2113;50.946;14.610;2022-10-17T07:18:05;97997.56;;;28.87;34.26
4199;BME280;2113;50.946;14.610;2022-10-17T07:20:34;98005.84;;;28.94;33.97
4199;BME280;2113;50.946;14.610;2022-10-17T07:23:02;98003.81;;;29.05;33.40
4199;BME280;2113;50.946;14.610;2022-10-17T07:25:31;97999.66;;;33.01;29.14
4199;BME280;2113;50.946;14.610;2022-10-17T07:28:08;98010.47;;;29.01;32.83
4199;BME280;2113;50.946;14.610;2022-10-17T07:30:37;98008.31;;;27.63;35.42
4199;BME280;2113;50.946;14.610;2022-10-17T07:33:10;98006.63;;;26.83;37.76
4199;BME280;2113;50.946;14.610;2022-10-17T07:35:38;98007.50;;;27.12;37.48
4199;BME280;2113;50.946;14.610;2022-10-17T07:38:07;98004.84;;;30.38;31.89
4199;BME280;2113;50.946;14.610;2022-10-17T07:40:36;98003.97;;;29.32;33.19
4199;BME280;2113;50.946;14.610;2022-10-17T07:43:05;98004.31;;;29.19;33.59
4199;BME280;2113;50.946;14.610;2022-10-17T07:45:34;98009.09;;;30.49;31.42
4199;BME280;2113;50.946;14.610;2022-10-17T07:48:03;98004.94;;;30.29;31.68
4199;BME280;2113;50.946;14.610;2022-10-17T07:50:32;98004.56;;;30.23;31.52
4199;BME280;2113;50.946;14.610;2022-10-17T07:53:01;98000.56;;;27.89;34.86
4199;BME280;2113;50.946;14.610;2022-10-17T07:55:29;98009.13;;;26.53;37.72
4199;BME280;2113;50.946;14.610;2022-10-17T07:57:57;98011.84;;;25.90;39.96
4199;BME280;2113;50.946;14.610;2022-10-17T08:00:27;98014.88;;;25.97;38.77
4199;BME280;2113;50.946;14.610;2022-10-17T08:02:56;98012.94;;;27.61;36.36
4199;BME280;2113;50.946;14.610;2022-10-17T08:05:24;98012.97;;;26.09;38.11
4199;BME280;2113;50.946;14.610;2022-10-17T08:07:53;98011.53;;;27.96;35.54
4199;BME280;2113;50.946;14.610;2022-10-17T08:10:22;98006.84;;;29.20;33.21
4199;BME280;2113;50.946;14.610;2022-10-17T08:12:53;98010.38;;;29.57;33.07
4199;BME280;2113;50.946;14.610;2022-10-17T08:15:22;98014.34;;;27.75;34.91
4199;BME280;2113;50.946;14.610;2022-10-17T08:17:58;98014.25;;;27.17;37.24
4199;BME280;2113;50.946;14.610;2022-10-17T08:20:26;98013.50;;;29.34;33.31
4199;BME280;2113;50.946;14.610;2022-10-17T08:22:54;98014.84;;;30.62;30.89
4199;BME280;2113;50.946;14.610;2022-10-17T08:25:23;98012.63;;;28.70;33.07
4199;BME280;2113;50.946;14.610;2022-10-17T08:27:51;98020.56;;;29.35;32.48
4199;BME280;2113;50.946;14.610;2022-10-17T08:30:19;98020.09;;;27.31;36.37
4199;BME280;2113;50.946;14.610;2022-10-17T08:32:48;98023.97;;;29.73;32.81
4199;BME280;2113;50.946;14.610;2022-10-17T08:35:18;98021.00;;;31.32;29.28
4199;BME280;2113;50.946;14.610;2022-10-17T08:37:47;98027.34;;;29.75;32.07
4199;BME280;2113;50.946;14.610;2022-10-17T08:40:18;98028.44;;;28.54;33.56
4199;BME280;2113;50.946;14.610;2022-10-17T08:45:47;98013.75;;;30.39;31.44
4199;BME280;2113;50.946;14.610;2022-10-17T08:48:20;98007.88;;;29.37;32.40
4199;BME280;2113;50.946;14.610;2022-10-17T08:50:53;98016.13;;;28.70;34.59
4199;BME280;2113;50.946;14.610;2022-10-17T08:53:28;98013.19;;;31.63;28.54
4199;BME280;2113;50.946;14.610;2022-10-17T08:56:02;98020.72;;;30.92;30.41
4199;BME280;2113;50.946;14.610;2022-10-17T08:58:37;98026.63;;;28.82;32.91
4199;BME280;2113;50.946;14.610;2022-10-17T09:01:10;98021.75;;;28.67;33.84
4199;BME280;2113;50.946;14.610;2022-10-17T09:03:51;98019.91;;;26.73;37.90
4199;BME280;2113;50.946;14.610;2022-10-17T09:06:26;98021.31;;;28.25;34.02
4199;BME280;2113;50.946;14.610;2022-10-17T09:09:14;98019.81;;;27.25;37.74
4199;BME280;2113;50.946;14.610;2022-10-17T09:11:55;98012.44;;;27.17;37.45
4199;BME280;2113;50.946;14.610;2022-10-17T09:17:42;98012.25;;;26.28;38.45
4199;BME280;2113;50.946;14.610;2022-10-17T09:20:18;98007.94;;;26.67;37.77
4199;BME280;2113;50.946;14.610;2022-10-17T09:22:54;97997.69;;;27.13;37.83
4199;BME280;2113;50.946;14.610;2022-10-17T09:25:25;97991.41;;;28.49;34.78
4199;BME280;2113;50.946;14.610;2022-10-17T09:27:57;97998.16;;;27.47;36.52
4199;BME280;2113;50.946;14.610;2022-10-17T09:30:34;97996.88;;;27.42;36.82
4199;BME280;2113;50.946;14.610;2022-10-17T09:33:13;98003.22;;;25.98;38.15
4199;BME280;2113;50.946;14.610;2022-10-17T09:36:03;98000.53;;;25.01;40.16
4199;BME280;2113;50.946;14.610;2022-10-17T09:38:40;97996.00;;;26.41;39.55
4199;BME280;2113;50.946;14.610;2022-10-17T09:41:16;97998.25;;;27.17;36.86
4199;BME280;2113;50.946;14.610;2022-10-17T09:44:27;97999.25;;;28.60;35.22
4199;BME280;2113;50.946;14.610;2022-10-17T09:47:16;98008.16;;;29.88;33.28
4199;BME280;2113;50.946;14.610;2022-10-17T09:49:48;97999.25;;;29.16;33.72
4199;BME280;2113;50.946;14.610;2022-10-17T09:52:18;98001.38;;;28.47;34.83
4199;BME280;2113;50.946;14.610;2022-10-17T09:54:51;98010.91;;;26.64;36.96
4199;BME280;2113;50.946;14.610;2022-10-17T09:57:20;98013.00;;;27.21;36.96
4199;BME280;2113;50.946;14.610;2022-10-17T09:59:56;98017.13;;;27.25;35.81
4199;BME280;2113;50.946;14.610;2022-10-17T10:02:27;98009.13;;;26.84;36.87
4199;BME280;2113;50.946;14.610;2022-10-17T10:04:59;98011.22;;;27.31;36.41
4199;BME280;2113;50.946;14.610;2022-10-17T10:07:32;98012.84;;;28.29;34.87
4199;BME280;2113;50.946;14.610;2022-10-17T10:10:04;98009.94;;;28.70;34.46
4199;BME280;2113;50.946;14.610;2022-10-17T10:12:34;98027.50;;;28.25;33.95
4199;BME280;2113;50.946;14.610;2022-10-17T10:15:30;98015.44;;;27.53;35.33
4199;BME280;2113;50.946;14.610;2022-10-17T10:18:00;98027.03;;;26.63;37.21
4199;BME280;2113;50.946;14.610;2022-10-17T10:20:32;98017.47;;;28.84;34.43
4199;BME280;2113;50.946;14.610;2022-10-17T10:23:06;98014.91;;;30.36;30.44
4199;BME280;2113;50.946;14.610;2022-10-17T10:25:36;98014.38;;;29.89;32.25
4199;BME280;2113;50.946;14.610;2022-10-17T10:28:09;98014.44;;;28.97;33.10
4199;BME280;2113;50.946;14.610;2022-10-17T10:30:37;98010.69;;;29.18;32.75
4199;BME280;2113;50.946;14.610;2022-10-17T10:33:10;98004.88;;;30.73;30.61
4199;BME280;2113;50.946;14.610;2022-10-17T10:35:38;98007.16;;;30.33;33.23
4199;BME280;2113;50.946;14.610;2022-10-17T10:38:09;98007.94;;;29.45;33.07
4199;BME280;2113;50.946;14.610;2022-10-17T10:40:45;98005.84;;;30.37;32.32
4199;BME280;2113;50.946;14.610;2022-10-17T10:43:24;98009.03;;;30.15;31.46
4199;BME280;2113;50.946;14.610;2022-10-17T10:45:54;98010.69;;;29.18;33.67
4199;BME280;2113;50.946;14.610;2022-10-17T10:48:24;97995.47;;;29.18;33.95
4199;BME280;2113;50.946;14.610;2022-10-17T10:50:56;97978.22;;;31.38;30.08
4199;BME280;2113;50.946;14.610;2022-10-17T10:53:33;97995.41;;;30.08;32.05
4199;BME280;2113;50.946;14.610;2022-10-17T10:56:10;98000.44;;;28.38;34.62
4199;BME280;2113;50.946;14.610;2022-10-17T10:58:50;97994.34;;;27.99;35.44
4199;BME280;2113;50.946;14.610;2022-10-17T11:01:26;97993.88;;;28.70;33.71
4199;BME280;2113;50.946;14.610;2022-10-17T11:04:11;98002.13;;;27.72;36.18
4199;BME280;2113;50.946;14.610;2022-10-17T11:06:44;97993.94;;;27.74;36.16
4199;BME280;2113;50.946;14.610;2022-10-17T11:09:22;97994.91;;;29.33;33.45
4199;BME280;2113;50.946;14.610;2022-10-17T11:12:04;98002.22;;;28.00;35.30
4199;BME280;2113;50.946;14.610;2022-10-17T11:14:39;97996.88;;;27.51;35.47
4199;BME280;2113;50.946;14.610;2022-10-17T11:17:16;98002.50;;;27.78;36.98
4199;BME280;2113;50.946;14.610;2022-10-17T11:19:51;98006.81;;;26.60;37.37
4199;BME280;2113;50.946;14.610;2022-10-17T11:22:27;98008.59;;;26.08;39.57
4199;BME280;2113;50.946;14.610;2022-10-17T11:24:59;98008.38;;;25.57;39.88
4199;BME280;2113;50.946;14.610;2022-10-17T11:27:30;97996.34;;;25.95;39.42
4199;BME280;2113;50.946;14.610;2022-10-17T11:29:58;98005.00;;;25.12;41.82
4199;BME280;2113;50.946;14.610;2022-10-17T11:32:30;98006.38;;;24.61;44.41
4199;BME280;2113;50.946;14.610;2022-10-17T11:35:04;97997.59;;;25.15;42.55
4199;BME280;2113;50.946;14.610;2022-10-17T11:37:39;97990.94;;;25.32;43.03
4199;BME280;2113;50.946;14.610;2022-10-17T11:40:17;97991.31;;;25.81;41.83
4199;BME280;2113;50.946;14.610;2022-10-17T11:42:55;97989.81;;;25.35;42.82
4199;BME280;2113;50.946;14.610;2022-10-17T11:45:28;97993.44;;;25.45;41.71
4199;BME280;2113;50.946;14.610;2022-10-17T11:48:01;97983.91;;;26.06;41.88
4199;BME280;2113;50.946;14.610;2022-10-17T11:50:33;97986.91;;;26.64;39.43
4199;BME280;2113;50.946;14.610;2022-10-17T11:53:24;97985.84;;;25.62;40.96
4199;BME280;2113;50.946;14.610;2022-10-17T11:55:57;97990.69;;;25.56;41.51
4199;BME280;2113;50.946;14.610;2022-10-17T11:58:34;97991.41;;;24.83;41.98
4199;BME280;2113;50.946;14.610;2022-10-17T12:01:13;97987.09;;;25.25;41.68
4199;BME280;2113;50.946;14.610;2022-10-17T12:03:56;97995.19;;;25.77;42.98
4199;BME280;2113;50.946;14.610;2022-10-17T12:06:40;97990.22;;;26.26;40.30
4199;BME280;2113;50.946;14.610;2022-10-17T12:09:16;97984.03;;;26.56;40.49
4199;BME280;2113;50.946;14.610;2022-10-17T12:11:50;97976.50;;;26.61;40.29
4199;BME280;2113;50.946;14.610;2022-10-17T12:14:39;97983.31;;;26.23;40.94
4199;BME280;2113;50.946;14.610;2022-10-17T12:17:29;97985.50;;;26.70;40.41
4199;BME280;2113;50.946;14.610;2022-10-17T12:20:24;97977.47;;;26.60;40.63
4199;BME280;2113;50.946;14.610;2022-10-17T12:22:55;97977.50;;;25.87;40.52
4199;BME280;2113;50.946;14.610;2022-10-17T12:25:26;97970.56;;;25.64;41.51
4199;BME280;2113;50.946;14.610;2022-10-17T12:28:10;97971.78;;;25.92;40.66
4199;BME280;2113;50.946;14.610;2022-10-17T12:30:59;97966.34;;;25.93;41.72
4199;BME280;2113;50.946;14.610;2022-10-17T12:33:34;97974.00;;;24.78;43.17
4199;BME280;2113;50.946;14.610;2022-10-17T12:39:48;97960.72;;;24.45;44.30
4199;BME280;2113;50.946;14.610;2022-10-17T12:42:46;97970.81;;;23.83;45.05
4199;BME280;2113;50.946;14.610;2022-10-17T12:45:46;97969.72;;;24.98;42.95
4199;BME280;2113;50.946;14.610;2022-10-17T12:54:37;97963.25;;;24.69;43.71
4199;BME280;2113;50.946;14.610;2022-10-17T12:57:21;97973.28;;;24.42;44.70
4199;BME280;2113;50.946;14.610;2022-10-17T12:59:52;97964.41;;;23.86;45.70
4199;BME280;2113;50.946;14.610;2022-10-17T13:02:26;97954.66;;;23.26;47.06
4199;BME280;2113;50.946;14.610;2022-10-17T13:05:03;97962.47;;;23.88;45.40
4199;BME280;2113;50.946;14.610;2022-10-17T13:07:35;97950.09;;;23.64;45.12
4199;BME280;2113;50.946;14.610;2022-10-17T13:10:05;97951.75;;;23.65;46.65
4199;BME280;2113;50.946;14.610;2022-10-17T13:12:35;97956.22;;;24.34;44.77
4199;BME280;2113;50.946;14.610;2022-10-17T13:15:10;97952.00;;;24.20;45.50
4199;BME280;2113;50.946;14.610;2022-10-17T13:17:43;97948.25;;;24.11;45.65
4199;BME280;2113;50.946;14.610;2022-10-17T13:20:18;97942.03;;;25.33;43.58
4199;BME280;2113;50.946;14.610;2022-10-17T13:22:56;97946.19;;;24.26;44.16
4199;BME280;2113;50.946;14.610;2022-10-17T13:25:26;97942.09;;;24.33;44.20
4199;BME280;2113;50.946;14.610;2022-10-17T13:28:10;97950.91;;;24.79;43.73
4199;BME280;2113;50.946;14.610;2022-10-17T13:30:45;97951.94;;;23.15;45.36
4199;BME280;2113;50.946;14.610;2022-10-17T13:33:30;97941.19;;;23.30;45.99
4199;BME280;2113;50.946;14.610;2022-10-17T13:36:02;97939.66;;;22.77;46.90
4199;BME280;2113;50.946;14.610;2022-10-17T13:38:33;97937.22;;;23.11;46.79
4199;BME280;2113;50.946;14.610;2022-10-17T13:41:11;97928.69;;;24.23;44.30
4199;BME280;2113;50.946;14.610;2022-10-17T13:44:02;97931.38;;;23.54;45.75
4199;BME280;2113;50.946;14.610;2022-10-17T13:46:32;97928.97;;;22.16;49.23
4199;BME280;2113;50.946;14.610;2022-10-17T13:49:18;97922.19;;;22.38;48.20
4199;BME280;2113;50.946;14.610;2022-10-17T13:51:52;97926.97;;;23.42;46.58
4199;BME280;2113;50.946;14.610;2022-10-17T13:54:33;97922.63;;;22.93;48.18
4199;BME280;2113;50.946;14.610;2022-10-17T13:57:04;97922.38;;;22.22;48.93
4199;BME280;2113;50.946;14.610;2022-10-17T13:59:36;97925.59;;;22.27;49.45
4199;BME280;2113;50.946;14.610;2022-10-17T14:02:08;97917.97;;;22.72;48.50